createdAt,value
2023-02-11T00:01:32.457Z,8.30
2023-02-11T00:04:01.760Z,8.10
2023-02-11T00:06:33.112Z,8.80
2023-02-11T00:09:01.987Z,8.10
2023-02-11T00:11:30.841Z,8.20
2023-02-11T00:14:05.898Z,8.10
2023-02-11T00:16:33.837Z,8.90
2023-02-11T00:19:06.303Z,8.80
2023-02-11T00:21:35.829Z,8.80
2023-02-11T00:24:04.389Z,9.40
2023-02-11T00:26:35.535Z,8.00
2023-02-11T00:29:04.588Z,8.10
2023-02-11T00:31:34.086Z,8.30
2023-02-11T00:34:02.346Z,8.40
2023-02-11T00:36:31.059Z,7.60
2023-02-11T00:39:00.166Z,8.40
2023-02-11T00:41:29.848Z,8.70
2023-02-11T00:44:02.137Z,9.40
2023-02-11T00:46:30.618Z,8.40
2023-02-11T00:48:58.715Z,9.10
2023-02-11T00:51:28.726Z,8.30
2023-02-11T00:53:57.457Z,9.40
2023-02-11T00:56:25.537Z,9.50
2023-02-11T00:58:54.032Z,8.40
2023-02-11T01:01:21.976Z,9.30
2023-02-11T01:03:50.746Z,9.00
2023-02-11T01:06:19.091Z,9.40
2023-02-11T01:08:46.945Z,9.30
2023-02-11T01:11:20.626Z,9.30
2023-02-11T01:13:50.094Z,9.20
2023-02-11T01:16:20.016Z,9.40
2023-02-11T01:18:48.194Z,9.40
2023-02-11T01:21:19.290Z,9.30
2023-02-11T01:23:47.324Z,9.70
2023-02-11T01:26:15.120Z,10.00
2023-02-11T01:28:43.042Z,9.80
2023-02-11T01:31:10.888Z,10.30
2023-02-11T01:33:39.052Z,9.40
2023-02-11T01:36:08.599Z,8.10
2023-02-11T01:38:36.974Z,9.20
2023-02-11T01:41:12.412Z,9.10
2023-02-11T01:43:48.056Z,9.00
2023-02-11T01:46:32.745Z,8.70
2023-02-11T01:49:15.054Z,9.40
2023-02-11T01:51:55.517Z,10.10
2023-02-11T01:54:50.832Z,9.10
2023-02-11T01:57:26.291Z,9.00
2023-02-11T02:00:14.324Z,9.20
2023-02-11T02:03:32.016Z,8.70
2023-02-11T02:06:28.504Z,9.60
2023-02-11T02:09:12.878Z,8.70
2023-02-11T02:11:41.015Z,7.90
2023-02-11T02:14:08.914Z,8.50
2023-02-11T02:16:37.825Z,8.60
2023-02-11T02:19:42.974Z,8.40
2023-02-11T02:23:00.553Z,9.10
2023-02-11T02:25:51.003Z,9.00
2023-02-11T02:29:22.938Z,9.00
2023-02-11T02:32:33.745Z,9.00
2023-02-11T02:35:23.866Z,9.10
2023-02-11T02:38:21.145Z,8.80
2023-02-11T02:40:59.346Z,9.50
2023-02-11T02:43:29.448Z,9.50
2023-02-11T02:46:13.855Z,9.80
2023-02-11T02:48:42.348Z,9.30
2023-02-11T02:51:34.825Z,8.70
2023-02-11T02:54:05.526Z,8.80
2023-02-11T02:56:46.414Z,8.60
2023-02-11T02:59:54.075Z,9.20
2023-02-11T03:02:36.192Z,7.90
2023-02-11T03:05:23.854Z,8.80
2023-02-11T03:08:18.618Z,8.60
2023-02-11T03:10:51.094Z,8.50
2023-02-11T03:13:24.898Z,8.10
2023-02-11T03:15:57.849Z,8.80
2023-02-11T03:18:29.717Z,9.00
2023-02-11T03:20:59.910Z,8.60
2023-02-11T03:23:39.396Z,8.30
2023-02-11T03:27:25.914Z,8.90
2023-02-11T03:30:11.040Z,8.50
2023-02-11T03:32:49.244Z,9.00
2023-02-11T03:35:39.074Z,8.30
2023-02-11T03:38:17.887Z,9.00
2023-02-11T03:40:47.152Z,9.00
2023-02-11T03:43:25.181Z,9.10
2023-02-11T03:45:57.132Z,9.00
2023-02-11T03:48:37.933Z,9.40
2023-02-11T03:51:09.590Z,9.60
2023-02-11T03:53:41.158Z,9.20
2023-02-11T03:58:41.008Z,8.60
2023-02-11T04:01:09.971Z,9.00
2023-02-11T04:03:38.562Z,8.50
2023-02-11T04:06:06.718Z,9.60
2023-02-11T04:08:35.128Z,9.30
2023-02-11T04:11:03.024Z,9.30
2023-02-11T04:13:30.903Z,9.30
2023-02-11T04:15:58.831Z,8.50
2023-02-11T04:18:26.679Z,9.00
2023-02-11T04:20:54.487Z,8.70
2023-02-11T04:23:22.274Z,8.80
2023-02-11T04:25:50.787Z,7.80
2023-02-11T04:28:18.903Z,9.40
2023-02-11T04:30:46.903Z,7.80
2023-02-11T04:33:14.722Z,8.50
2023-02-11T04:35:42.565Z,8.00
2023-02-11T04:38:10.386Z,7.70
2023-02-11T04:40:38.529Z,8.20
2023-02-11T04:43:06.699Z,8.80
2023-02-11T04:45:34.745Z,7.90
2023-02-11T04:48:04.249Z,8.30
2023-02-11T04:50:32.076Z,8.20
2023-02-11T04:52:59.925Z,7.50
2023-02-11T04:55:27.826Z,7.20
2023-02-11T04:57:55.707Z,7.50
2023-02-11T05:00:23.568Z,8.50
2023-02-11T05:02:51.392Z,8.20
2023-02-11T05:05:19.440Z,7.50
2023-02-11T05:07:48.327Z,7.90
2023-02-11T05:10:16.284Z,7.40
2023-02-11T05:12:44.193Z,7.50
2023-02-11T05:15:12.019Z,6.90
2023-02-11T05:17:39.850Z,7.30
2023-02-11T05:20:09.636Z,7.40
2023-02-11T05:22:37.513Z,7.30
2023-02-11T05:25:06.015Z,7.20
2023-02-11T05:27:34.140Z,8.00
2023-02-11T05:30:02.532Z,7.50
2023-02-11T05:32:30.376Z,7.00
2023-02-11T05:34:58.224Z,7.50
2023-02-11T05:37:26.250Z,7.10
2023-02-11T05:39:54.138Z,7.60
2023-02-11T05:42:21.935Z,7.30
2023-02-11T05:44:50.777Z,7.40
2023-02-11T05:47:18.990Z,7.10
2023-02-11T05:49:47.480Z,7.40
2023-02-11T05:52:15.332Z,7.50
2023-02-11T05:54:43.170Z,6.70
2023-02-11T05:57:11.059Z,7.20
2023-02-11T05:59:39.246Z,7.20
2023-02-11T06:02:08.040Z,7.70
2023-02-11T06:04:37.705Z,6.90
2023-02-11T06:07:05.631Z,6.50
2023-02-11T06:09:33.480Z,6.20
2023-02-11T06:12:01.628Z,6.70
2023-02-11T06:14:29.472Z,6.10
2023-02-11T06:16:57.285Z,6.20
2023-02-11T06:19:25.149Z,5.40
2023-02-11T06:21:52.986Z,5.20
2023-02-11T06:24:47.707Z,6.20
2023-02-11T06:27:09.096Z,5.50
2023-02-11T06:29:37.043Z,5.80
2023-02-11T06:32:05.195Z,5.70
2023-02-11T06:34:33.231Z,5.60
2023-02-11T06:37:01.366Z,5.90
2023-02-11T06:39:29.353Z,5.70
2023-02-11T06:41:57.205Z,5.80
2023-02-11T06:44:25.087Z,5.30
2023-02-11T06:46:53.280Z,5.10
2023-02-11T06:49:21.247Z,5.50
2023-02-11T06:51:49.101Z,6.20
2023-02-11T06:54:17.009Z,6.10
2023-02-11T06:56:44.878Z,5.80
2023-02-11T06:59:18.433Z,5.50
2023-02-11T07:01:47.017Z,6.30
2023-02-11T07:04:15.530Z,5.60
2023-02-11T07:06:43.959Z,4.70
2023-02-11T07:09:11.991Z,4.70
2023-02-11T07:11:39.887Z,5.10
2023-02-11T07:14:08.659Z,4.60
2023-02-11T07:16:38.582Z,4.90
2023-02-11T07:19:06.461Z,5.20
2023-02-11T07:21:35.322Z,4.60
2023-02-11T07:24:10.879Z,4.40
2023-02-11T07:26:39.279Z,4.90
2023-02-11T07:29:07.086Z,4.60
2023-02-11T07:31:35.364Z,4.60
2023-02-11T07:34:03.615Z,4.50
2023-02-11T07:36:32.717Z,4.60
2023-02-11T07:39:00.849Z,4.60
2023-02-11T07:41:28.877Z,4.40
2023-02-11T07:43:56.850Z,4.90
2023-02-11T07:46:27.850Z,5.00
2023-02-11T07:48:56.238Z,4.40
2023-02-11T07:51:29.934Z,3.70
2023-02-11T07:54:00.327Z,4.30
2023-02-11T07:56:30.216Z,4.20
2023-02-11T07:59:03.477Z,3.80
2023-02-11T08:01:31.811Z,3.10
2023-02-11T08:04:02.261Z,4.00
2023-02-11T08:06:33.627Z,3.50
2023-02-11T08:09:08.900Z,4.40
2023-02-11T08:11:37.177Z,3.90
2023-02-11T08:14:05.256Z,4.00
2023-02-11T08:16:39.112Z,4.00
2023-02-11T08:19:16.862Z,3.50
2023-02-11T08:21:44.953Z,3.60
2023-02-11T08:24:14.820Z,3.60
2023-02-11T08:26:44.129Z,3.50
2023-02-11T08:29:15.844Z,3.80
2023-02-11T08:31:48.925Z,3.50
2023-02-11T08:34:20.048Z,3.50
2023-02-11T08:36:48.910Z,3.20
2023-02-11T08:39:21.225Z,3.40
2023-02-11T08:41:53.709Z,3.20
2023-02-11T08:44:23.471Z,3.40
2023-02-11T08:46:51.990Z,2.80
2023-02-11T08:49:21.137Z,3.10
2023-02-11T08:51:49.765Z,3.50
2023-02-11T08:54:18.208Z,3.40
2023-02-11T08:56:46.099Z,3.10
2023-02-11T08:59:15.474Z,3.10
2023-02-11T09:01:44.437Z,2.70
2023-02-11T09:04:13.033Z,2.20
2023-02-11T09:06:41.326Z,2.60
2023-02-11T09:09:13.852Z,3.10
2023-02-11T09:11:44.375Z,3.10
2023-02-11T09:14:20.013Z,2.50
2023-02-11T09:16:49.460Z,2.70
2023-02-11T09:19:18.307Z,2.60
2023-02-11T09:21:46.838Z,2.60
2023-02-11T09:24:15.601Z,2.70
2023-02-11T09:26:43.652Z,2.30
2023-02-11T09:29:11.952Z,2.70
2023-02-11T09:31:40.051Z,2.20
2023-02-11T09:34:08.814Z,2.70
2023-02-11T09:36:40.299Z,2.20
2023-02-11T09:42:20.549Z,2.10
2023-02-11T09:44:49.096Z,2.40
2023-02-11T09:47:30.982Z,1.90
2023-02-11T09:50:10.614Z,2.20
2023-02-11T09:52:56.544Z,2.00
2023-02-11T09:55:43.075Z,2.00
2023-02-11T09:58:22.878Z,2.50
2023-02-11T10:00:53.456Z,2.20
2023-02-11T10:04:03.572Z,2.50
2023-02-11T10:06:49.028Z,2.10
2023-02-11T10:09:54.609Z,2.10
2023-02-11T10:12:47.285Z,2.00
2023-02-11T10:15:30.191Z,2.10
2023-02-11T10:18:39.206Z,2.10
2023-02-11T10:21:19.708Z,2.30
2023-02-11T10:23:55.811Z,2.40
2023-02-11T10:26:24.088Z,2.30
2023-02-11T10:28:55.543Z,2.20
2023-02-11T10:31:38.330Z,2.10
2023-02-11T10:34:11.186Z,2.00
2023-02-11T10:36:44.047Z,1.80
2023-02-11T10:39:23.820Z,2.00
2023-02-11T10:41:59.326Z,1.90
2023-02-11T10:44:33.586Z,1.80
2023-02-11T10:47:22.622Z,2.00
2023-02-11T10:49:50.741Z,3.10
2023-02-11T10:52:24.858Z,3.10
2023-02-11T10:55:23.062Z,3.10
2023-02-11T10:58:00.584Z,2.90
2023-02-11T11:00:32.430Z,3.40
2023-02-11T11:03:02.011Z,2.60
2023-02-11T11:05:50.581Z,2.60
2023-02-11T11:08:19.959Z,2.90
2023-02-11T11:11:04.153Z,2.30
2023-02-11T11:13:36.420Z,2.10
2023-02-11T11:16:13.435Z,2.20
2023-02-11T11:18:44.881Z,1.80
2023-02-11T11:24:04.799Z,2.10
2023-02-11T11:26:47.332Z,2.50
2023-02-11T11:29:56.959Z,2.20
2023-02-11T11:32:33.944Z,2.50
2023-02-11T11:35:10.074Z,1.80
2023-02-11T11:37:39.289Z,1.90
2023-02-11T11:40:13.460Z,1.80
2023-02-11T11:42:41.703Z,1.60
2023-02-11T11:45:15.763Z,2.00
2023-02-11T11:48:14.024Z,2.10
2023-02-11T11:50:53.096Z,1.70
2023-02-11T11:53:29.204Z,1.60
2023-02-11T11:56:07.634Z,1.90
2023-02-11T11:58:36.031Z,1.80
2023-02-11T12:02:11.819Z,2.20
2023-02-11T12:05:20.671Z,2.10
2023-02-11T12:08:07.708Z,1.90
2023-02-11T12:11:00.160Z,1.60
2023-02-11T12:13:57.668Z,2.00
2023-02-11T12:16:43.646Z,1.90
2023-02-11T12:19:21.587Z,2.10
2023-02-11T12:22:42.586Z,1.60
2023-02-11T12:25:30.934Z,1.40
2023-02-11T12:28:06.120Z,1.70
2023-02-11T12:31:06.689Z,2.10
2023-02-11T12:33:44.851Z,2.00
2023-02-11T12:36:46.690Z,1.50
2023-02-11T12:42:42.020Z,1.70
2023-02-11T12:45:12.902Z,1.60
2023-02-11T12:48:23.769Z,1.60
2023-02-11T12:51:19.733Z,1.60
2023-02-11T12:54:03.771Z,1.80
2023-02-11T12:56:49.737Z,1.60
2023-02-11T12:59:50.202Z,1.40
2023-02-11T13:02:54.385Z,1.60
2023-02-11T13:05:43.677Z,1.30
2023-02-11T13:08:17.984Z,1.40
2023-02-11T13:10:55.633Z,1.80
2023-02-11T13:13:35.738Z,1.80
2023-02-11T13:16:07.968Z,1.50
2023-02-11T13:18:57.491Z,1.80
2023-02-11T13:21:45.682Z,1.90
2023-02-11T13:24:38.091Z,2.60
2023-02-11T13:27:23.809Z,3.30
2023-02-11T13:30:28.601Z,2.40
2023-02-11T13:32:56.710Z,1.90
2023-02-11T13:35:44.298Z,5.10
2023-02-11T13:38:24.060Z,3.00
2023-02-11T13:41:16.607Z,2.70
2023-02-11T13:43:58.235Z,4.10
2023-02-11T13:46:30.264Z,2.80
2023-02-11T13:48:58.508Z,2.00
2023-02-11T13:51:40.646Z,1.80
2023-02-11T13:54:23.756Z,1.60
2023-02-11T13:57:19.383Z,1.90
2023-02-11T13:59:55.035Z,3.00
2023-02-11T14:02:57.034Z,2.10
2023-02-11T14:05:51.955Z,1.90
2023-02-11T14:08:44.436Z,1.70
2023-02-11T14:11:25.229Z,2.30
2023-02-11T14:13:53.111Z,4.10
2023-02-11T14:16:37.068Z,3.20
2023-02-11T14:19:08.594Z,3.20
2023-02-11T14:21:44.526Z,2.10
2023-02-11T14:24:12.966Z,1.90
2023-02-11T14:27:01.884Z,2.00
2023-02-11T14:29:44.988Z,2.10
2023-02-11T14:32:42.334Z,2.10
2023-02-11T14:35:28.901Z,2.20
2023-02-11T14:38:24.489Z,1.80
2023-02-11T14:41:19.256Z,3.50
2023-02-11T14:43:53.743Z,3.60
2023-02-11T14:46:25.463Z,4.10
2023-02-11T14:48:58.340Z,3.00
2023-02-11T14:51:34.922Z,2.80
2023-02-11T14:54:23.538Z,3.10
2023-02-11T14:57:16.484Z,2.60
2023-02-11T15:00:21.667Z,2.10
2023-02-11T15:02:49.633Z,2.70
2023-02-11T15:05:20.392Z,2.40
2023-02-11T15:07:59.948Z,2.60
2023-02-11T15:10:36.349Z,2.60
2023-02-11T15:13:05.751Z,2.30
2023-02-11T15:15:36.515Z,3.00
2023-02-11T15:18:05.592Z,3.00
2023-02-11T15:20:35.838Z,2.30
2023-02-11T15:23:13.245Z,2.50
2023-02-11T15:25:51.156Z,2.60
2023-02-11T15:28:30.368Z,3.00
2023-02-11T15:31:13.491Z,3.20
2023-02-11T15:33:41.761Z,2.60
2023-02-11T15:36:12.766Z,2.50
2023-02-11T15:38:41.131Z,2.90
2023-02-11T15:41:38.301Z,2.20
2023-02-11T15:44:06.118Z,2.60
2023-02-11T15:46:39.843Z,2.70
2023-02-11T15:49:19.255Z,4.00
2023-02-11T15:51:47.830Z,3.70
2023-02-11T15:54:21.783Z,2.90
2023-02-11T15:56:52.768Z,2.90
2023-02-11T15:59:40.554Z,2.50
2023-02-11T16:02:31.976Z,2.60
2023-02-11T16:05:06.237Z,2.40
2023-02-11T16:07:49.948Z,2.90
2023-02-11T16:10:23.799Z,2.70
2023-02-11T16:13:11.794Z,2.50
2023-02-11T16:15:54.842Z,2.30
2023-02-11T16:18:52.118Z,2.90
2023-02-11T16:21:39.161Z,3.00
2023-02-11T16:24:21.497Z,2.30
2023-02-11T16:26:54.342Z,2.20
2023-02-11T16:29:32.229Z,2.10
2023-02-11T16:32:27.234Z,2.40
2023-02-11T16:34:59.386Z,4.60
2023-02-11T16:37:28.238Z,3.00
2023-02-11T16:39:58.258Z,2.10
2023-02-11T16:42:26.253Z,2.30
2023-02-11T16:44:54.129Z,2.10
2023-02-11T16:47:28.686Z,2.90
2023-02-11T16:49:58.725Z,3.00
2023-02-11T16:52:31.353Z,2.80
2023-02-11T16:57:30.200Z,1.80
2023-02-11T17:00:00.149Z,2.30
2023-02-11T17:02:37.174Z,3.80
2023-02-11T17:05:08.851Z,6.00
2023-02-11T17:07:36.689Z,5.60
2023-02-11T17:10:27.000Z,6.10
2023-02-11T17:12:54.793Z,7.00
2023-02-11T17:15:22.934Z,5.90
2023-02-11T17:17:50.766Z,6.00
2023-02-11T17:20:18.929Z,4.60
2023-02-11T17:22:46.718Z,5.10
2023-02-11T17:25:14.552Z,5.50
2023-02-11T17:27:42.888Z,5.80
2023-02-11T17:30:14.054Z,6.90
2023-02-11T17:32:41.924Z,7.20
2023-02-11T17:35:09.796Z,8.70
2023-02-11T17:37:37.986Z,8.70
2023-02-11T17:40:08.258Z,9.20
2023-02-11T17:42:36.128Z,8.10
2023-02-11T17:45:04.289Z,7.60
2023-02-11T17:47:34.637Z,7.30
2023-02-11T17:50:03.973Z,8.40
2023-02-11T17:52:32.054Z,18.80
2023-02-11T17:55:00.168Z,17.00
2023-02-11T17:57:28.730Z,15.10
2023-02-11T17:59:56.817Z,15.10
2023-02-11T18:02:24.687Z,12.40
2023-02-11T18:04:53.368Z,12.80
2023-02-11T18:07:21.763Z,13.00
2023-02-11T18:09:49.683Z,12.50
2023-02-11T18:12:26.146Z,11.80
2023-02-11T18:14:57.538Z,12.20
2023-02-11T18:17:26.267Z,12.80
2023-02-11T18:19:58.189Z,13.70
2023-02-11T18:22:27.057Z,12.70
2023-02-11T18:24:55.518Z,15.00
2023-02-11T18:27:23.415Z,16.00
2023-02-11T18:29:51.317Z,16.70
2023-02-11T18:32:19.204Z,15.60
2023-02-11T18:34:47.142Z,14.90
2023-02-11T18:37:16.404Z,15.50
2023-02-11T18:39:44.289Z,13.60
2023-02-11T18:42:12.329Z,10.90
2023-02-11T18:44:40.466Z,12.10
2023-02-11T18:47:08.483Z,13.30
2023-02-11T18:49:36.385Z,13.20
2023-02-11T18:52:04.699Z,13.10
2023-02-11T18:54:32.725Z,13.20
2023-02-11T18:57:00.572Z,13.10
2023-02-11T18:59:29.102Z,16.50
2023-02-11T19:01:56.917Z,14.30
2023-02-11T19:04:25.106Z,13.20
2023-02-11T19:06:53.025Z,10.70
2023-02-11T19:09:21.286Z,10.40
2023-02-11T19:11:53.918Z,13.00
2023-02-11T19:14:29.730Z,34.10
2023-02-11T19:17:01.290Z,17.40
2023-02-11T19:19:32.777Z,12.90
2023-02-11T19:22:02.614Z,11.90
2023-02-11T19:24:30.898Z,13.70
2023-02-11T19:27:02.860Z,15.60
2023-02-11T19:29:33.469Z,14.70
2023-02-11T19:32:05.798Z,15.40
2023-02-11T19:34:41.066Z,15.80
2023-02-11T19:37:12.702Z,14.10
2023-02-11T19:39:42.721Z,12.90
2023-02-11T19:42:12.238Z,9.90
2023-02-11T19:44:40.216Z,7.40
2023-02-11T19:47:10.248Z,9.10
2023-02-11T19:49:38.113Z,10.50
2023-02-11T19:52:05.951Z,13.40
2023-02-11T19:54:33.813Z,11.40
2023-02-11T19:57:01.832Z,12.70
2023-02-11T19:59:29.728Z,12.30
2023-02-11T20:01:57.716Z,14.50
2023-02-11T20:04:25.707Z,14.00
2023-02-11T20:06:53.799Z,13.50
2023-02-11T20:09:22.754Z,14.90
2023-02-11T20:11:50.637Z,14.70
2023-02-11T20:14:19.159Z,13.70
2023-02-11T20:16:49.827Z,12.20
2023-02-11T20:19:21.935Z,15.50
2023-02-11T20:21:53.774Z,15.60
2023-02-11T20:24:23.493Z,15.60
2023-02-11T20:26:55.380Z,15.10
2023-02-11T20:29:24.742Z,14.40
2023-02-11T20:31:53.236Z,14.90
2023-02-11T20:34:22.059Z,19.90
2023-02-11T20:36:52.940Z,16.90
2023-02-11T20:39:23.568Z,15.10
2023-02-11T20:41:53.299Z,15.80
2023-02-11T20:44:22.305Z,15.70
2023-02-11T20:46:52.089Z,15.50
2023-02-11T20:49:23.987Z,15.20
2023-02-11T20:51:53.780Z,15.30
2023-02-11T20:54:24.111Z,15.20
2023-02-11T20:56:55.402Z,15.40
2023-02-11T20:59:23.753Z,14.90
2023-02-11T21:01:55.796Z,16.00
2023-02-11T21:04:30.331Z,16.40
2023-02-11T21:07:01.706Z,16.80
2023-02-11T21:09:33.223Z,16.80
2023-02-11T21:12:01.892Z,18.30
2023-02-11T21:14:30.401Z,19.40
2023-02-11T21:16:58.395Z,18.30
2023-02-11T21:19:26.655Z,15.90
2023-02-11T21:21:55.307Z,18.60
2023-02-11T21:24:23.813Z,18.60
2023-02-11T21:26:51.669Z,17.90
2023-02-11T21:29:19.481Z,17.30
2023-02-11T21:31:47.627Z,15.60
2023-02-11T21:34:16.418Z,17.10
2023-02-11T21:36:45.218Z,18.50
2023-02-11T21:39:14.360Z,16.40
2023-02-11T21:41:42.289Z,16.40
2023-02-11T21:44:10.489Z,14.70
2023-02-11T21:46:38.509Z,14.20
2023-02-11T21:49:06.536Z,13.70
2023-02-11T21:51:34.370Z,13.90
2023-02-11T21:54:03.504Z,12.70
2023-02-11T21:56:34.230Z,14.80
2023-02-11T21:59:03.267Z,13.70
2023-02-11T22:01:35.562Z,14.00
2023-02-11T22:04:04.199Z,15.40
2023-02-11T22:06:34.185Z,13.50
2023-02-11T22:09:06.410Z,14.00
2023-02-11T22:11:34.967Z,14.00
2023-02-11T22:14:03.241Z,14.00
2023-02-11T22:16:31.724Z,14.50
2023-02-11T22:19:02.283Z,13.60
2023-02-11T22:21:30.463Z,14.50
2023-02-11T22:23:58.499Z,16.60
2023-02-11T22:26:27.751Z,14.70
2023-02-11T22:28:56.279Z,15.60
2023-02-11T22:31:29.813Z,13.30
2023-02-11T22:33:58.963Z,13.90
2023-02-11T22:36:31.351Z,15.00
2023-02-11T22:39:17.592Z,12.90
2023-02-11T22:41:47.783Z,13.60
2023-02-11T22:44:17.455Z,13.30
2023-02-11T22:46:45.822Z,14.10
2023-02-11T22:49:16.449Z,14.80
2023-02-11T22:51:46.344Z,14.80
2023-02-11T22:54:19.327Z,15.40
2023-02-11T22:56:51.395Z,15.20
2023-02-11T22:59:19.873Z,14.00
2023-02-11T23:01:48.830Z,14.50
2023-02-11T23:04:19.215Z,14.30
2023-02-11T23:06:47.783Z,15.00
2023-02-11T23:09:15.631Z,16.20
2023-02-11T23:11:44.122Z,14.80
2023-02-11T23:14:12.341Z,11.40
2023-02-11T23:16:40.245Z,13.30
2023-02-11T23:19:10.336Z,13.10
2023-02-11T23:21:39.345Z,13.20
2023-02-11T23:24:13.212Z,12.80
2023-02-11T23:26:43.817Z,12.00
2023-02-11T23:29:13.141Z,11.00
2023-02-11T23:31:46.176Z,10.80
2023-02-11T23:34:17.219Z,12.00
2023-02-11T23:36:45.182Z,10.80
2023-02-11T23:39:15.837Z,11.30
2023-02-11T23:41:44.970Z,11.10
2023-02-11T23:44:13.010Z,11.90
2023-02-11T23:46:41.142Z,12.40
2023-02-11T23:49:09.336Z,13.70
2023-02-11T23:51:37.200Z,14.00
2023-02-11T23:54:05.306Z,12.80
2023-02-11T23:56:33.318Z,12.40
2023-02-11T23:59:01.140Z,14.10
